createdAt,value
2018-06-12T00:01:51.108Z,3.27
2018-06-12T00:04:18.152Z,3.40
2018-06-12T00:06:45.195Z,4.22
2018-06-12T00:09:12.239Z,3.22
2018-06-12T00:11:39.322Z,3.80
2018-06-12T00:14:06.374Z,3.77
2018-06-12T00:16:33.446Z,4.60
2018-06-12T00:19:00.486Z,3.75
2018-06-12T00:21:27.589Z,3.40
2018-06-12T00:23:54.654Z,4.17
2018-06-12T00:26:21.708Z,3.80
2018-06-12T00:28:48.751Z,3.67
2018-06-12T00:31:15.930Z,3.37
2018-06-12T00:33:42.960Z,3.12
2018-06-12T00:36:09.992Z,4.25
2018-06-12T00:38:37.038Z,3.27
2018-06-12T00:41:04.070Z,4.00
2018-06-12T00:43:31.151Z,3.75
2018-06-12T00:45:58.211Z,3.45
2018-06-12T00:48:25.254Z,2.95
2018-06-12T00:50:52.352Z,4.60
2018-06-12T00:53:19.396Z,4.83
2018-06-12T00:55:46.451Z,3.80
2018-06-12T00:58:13.478Z,2.87
2018-06-12T01:00:40.514Z,3.10
2018-06-12T01:03:07.568Z,3.80
2018-06-12T01:05:35.235Z,3.47
2018-06-12T01:08:02.292Z,3.85
2018-06-12T01:10:29.334Z,4.58
2018-06-12T01:12:56.504Z,2.92
2018-06-12T01:15:23.532Z,4.42
2018-06-12T01:17:50.564Z,4.78
2018-06-12T01:20:17.604Z,4.10
2018-06-12T01:22:44.649Z,3.65
2018-06-12T01:25:11.712Z,4.05
2018-06-12T01:27:38.744Z,3.87
2018-06-12T01:30:05.788Z,3.77
2018-06-12T01:32:32.848Z,4.35
2018-06-12T01:34:59.907Z,3.12
2018-06-12T01:37:26.944Z,3.52
2018-06-12T01:39:53.986Z,4.10
2018-06-12T01:42:21.040Z,4.10
2018-06-12T01:44:48.069Z,2.55
2018-06-12T01:47:15.112Z,3.65
2018-06-12T01:49:42.170Z,3.75
2018-06-12T01:52:09.331Z,4.08
2018-06-12T01:54:36.360Z,3.55
2018-06-12T01:57:03.424Z,3.45
2018-06-12T01:59:30.453Z,5.12
2018-06-12T02:01:57.500Z,3.80
2018-06-12T02:04:24.532Z,4.47
2018-06-12T02:06:51.583Z,2.87
2018-06-12T02:09:18.627Z,3.45
2018-06-12T02:11:45.694Z,3.05
2018-06-12T02:14:12.740Z,3.25
2018-06-12T02:16:39.776Z,2.85
2018-06-12T02:19:06.843Z,3.67
2018-06-12T02:22:37.425Z,3.33
2018-06-12T02:25:04.647Z,3.50
2018-06-12T02:27:31.708Z,3.35
2018-06-12T02:29:58.740Z,3.15
2018-06-12T02:32:25.837Z,3.20
2018-06-12T02:34:52.878Z,3.65
2018-06-12T02:37:19.919Z,2.80
2018-06-12T02:39:46.972Z,4.65
2018-06-12T02:42:14.024Z,2.92
2018-06-12T02:44:41.149Z,2.98
2018-06-12T02:47:08.135Z,2.27
2018-06-12T02:49:35.204Z,4.15
2018-06-12T02:52:02.335Z,2.27
2018-06-12T02:54:29.360Z,3.33
2018-06-12T02:56:56.403Z,3.08
2018-06-12T02:59:23.467Z,3.90
2018-06-12T03:01:50.615Z,2.77
2018-06-12T03:04:17.684Z,3.55
2018-06-12T03:06:44.732Z,3.02
2018-06-12T03:09:11.781Z,3.37
2018-06-12T03:11:38.892Z,2.77
2018-06-12T03:14:05.936Z,2.62
2018-06-12T03:16:32.986Z,4.22
2018-06-12T03:19:00.477Z,4.25
2018-06-12T03:21:27.590Z,2.83
2018-06-12T03:23:54.634Z,3.72
2018-06-12T03:26:21.677Z,3.20
2018-06-12T03:28:48.729Z,3.58
2018-06-12T03:31:15.884Z,3.05
2018-06-12T03:33:42.935Z,3.58
2018-06-12T03:36:09.972Z,3.40
2018-06-12T03:38:37.027Z,2.50
2018-06-12T03:41:04.164Z,3.05
2018-06-12T03:43:31.239Z,2.35
2018-06-12T03:45:58.345Z,2.37
2018-06-12T03:48:25.406Z,3.47
2018-06-12T03:50:52.433Z,2.90
2018-06-12T03:53:19.491Z,2.40
2018-06-12T03:55:46.552Z,3.20
2018-06-12T03:58:13.603Z,2.30
2018-06-12T04:00:40.647Z,3.05
2018-06-12T04:03:07.784Z,2.10
2018-06-12T04:05:34.875Z,2.25
2018-06-12T04:08:01.924Z,2.80
2018-06-12T04:10:28.999Z,2.15
2018-06-12T04:12:56.105Z,1.55
2018-06-12T04:15:23.136Z,2.10
2018-06-12T04:17:50.211Z,4.20
2018-06-12T04:20:17.256Z,2.90
2018-06-12T04:22:44.364Z,2.27
2018-06-12T04:25:11.389Z,3.52
2018-06-12T04:27:38.431Z,2.37
2018-06-12T04:30:05.471Z,2.30
2018-06-12T04:32:32.558Z,3.70
2018-06-12T04:34:59.615Z,3.22
2018-06-12T04:37:26.683Z,2.75
2018-06-12T04:39:53.735Z,3.20
2018-06-12T04:42:20.845Z,3.42
2018-06-12T04:44:47.903Z,3.00
2018-06-12T04:47:14.948Z,2.83
2018-06-12T04:49:42.021Z,3.35
2018-06-12T04:52:09.119Z,2.85
2018-06-12T04:54:36.189Z,2.87
2018-06-12T04:57:03.205Z,3.55
2018-06-12T04:59:30.240Z,2.67
2018-06-12T05:01:57.996Z,3.40
2018-06-12T05:04:25.083Z,2.75
2018-06-12T05:06:52.367Z,5.12
2018-06-12T05:09:19.496Z,3.60
2018-06-12T05:11:46.667Z,3.50
2018-06-12T05:14:13.759Z,3.00
2018-06-12T05:16:40.811Z,3.25
2018-06-12T05:19:07.904Z,3.33
2018-06-12T05:21:35.010Z,3.72
2018-06-12T05:24:02.092Z,3.90
2018-06-12T05:26:29.180Z,3.85
2018-06-12T05:28:56.236Z,2.20
2018-06-12T05:31:23.308Z,3.17
2018-06-12T05:33:50.440Z,3.00
2018-06-12T05:36:17.532Z,2.17
2018-06-12T05:38:44.623Z,3.22
2018-06-12T05:41:11.690Z,3.90
2018-06-12T05:43:38.750Z,3.30
2018-06-12T05:46:06.202Z,2.80
2018-06-12T05:48:33.238Z,2.87
2018-06-12T05:51:00.294Z,2.72
2018-06-12T05:53:27.415Z,3.05
2018-06-12T05:55:54.487Z,3.60
2018-06-12T05:58:21.530Z,2.37
2018-06-12T06:00:48.561Z,2.52
2018-06-12T06:03:15.700Z,3.70
2018-06-12T06:05:42.766Z,4.00
2018-06-12T06:08:09.815Z,3.10
2018-06-12T06:10:36.894Z,2.70
2018-06-12T06:13:03.990Z,3.72
2018-06-12T06:15:31.059Z,2.85
2018-06-12T06:17:58.158Z,2.67
2018-06-12T06:20:25.224Z,2.55
2018-06-12T06:22:52.294Z,2.42
2018-06-12T06:25:19.350Z,2.67
2018-06-12T06:27:46.396Z,2.87
2018-06-12T06:30:13.458Z,3.25
2018-06-12T06:32:40.560Z,2.80
2018-06-12T06:35:07.608Z,2.98
2018-06-12T06:37:34.645Z,2.80
2018-06-12T06:40:01.754Z,3.27
2018-06-12T06:42:28.899Z,3.05
2018-06-12T06:44:55.946Z,2.62
2018-06-12T06:47:23.032Z,2.75
2018-06-12T06:49:50.068Z,2.65
2018-06-12T06:52:17.141Z,2.65
2018-06-12T06:54:44.247Z,3.22
2018-06-12T06:57:12.100Z,3.33
2018-06-12T06:59:39.159Z,3.50
2018-06-12T07:02:06.298Z,3.37
2018-06-12T07:04:33.338Z,1.80
2018-06-12T07:07:01.265Z,2.15
2018-06-12T07:09:28.569Z,2.83
2018-06-12T07:11:55.750Z,3.08
2018-06-12T07:14:22.806Z,2.58
2018-06-12T07:16:49.952Z,2.33
2018-06-12T07:19:16.984Z,2.90
2018-06-12T07:21:44.032Z,2.80
2018-06-12T07:24:11.161Z,1.80
2018-06-12T07:26:38.210Z,2.37
2018-06-12T07:29:05.252Z,3.25
2018-06-12T07:31:32.349Z,2.40
2018-06-12T07:33:59.382Z,2.17
2018-06-12T07:36:26.423Z,2.42
2018-06-12T07:38:53.459Z,2.20
2018-06-12T07:41:20.525Z,2.47
2018-06-12T07:43:47.582Z,2.42
2018-06-12T07:46:14.649Z,2.47
2018-06-12T07:48:41.692Z,2.58
2018-06-12T07:51:08.846Z,3.10
2018-06-12T07:53:35.932Z,2.70
2018-06-12T07:56:02.981Z,2.80
2018-06-12T07:58:30.039Z,2.52
2018-06-12T08:00:57.251Z,2.55
2018-06-12T08:03:24.286Z,2.45
2018-06-12T08:05:51.348Z,2.20
2018-06-12T08:08:18.400Z,3.05
2018-06-12T08:10:45.452Z,2.25
2018-06-12T08:13:12.534Z,2.17
2018-06-12T08:15:39.595Z,2.25
2018-06-12T08:18:06.638Z,2.27
2018-06-12T08:20:33.699Z,3.25
2018-06-12T08:23:00.886Z,2.50
2018-06-12T08:25:27.921Z,2.87
2018-06-12T08:27:54.982Z,2.60
2018-06-12T08:30:22.140Z,2.47
2018-06-12T08:32:49.720Z,2.90
2018-06-12T08:35:16.794Z,3.25
2018-06-12T08:37:43.827Z,3.60
2018-06-12T08:40:10.931Z,1.85
2018-06-12T08:42:37.994Z,4.28
2018-06-12T08:45:05.050Z,2.05
2018-06-12T08:47:32.137Z,2.83
2018-06-12T08:49:59.170Z,2.98
2018-06-12T08:52:26.285Z,3.02
2018-06-12T08:54:53.766Z,2.58
2018-06-12T08:57:21.134Z,2.30
2018-06-12T08:59:48.181Z,2.77
2018-06-12T09:02:15.293Z,2.77
2018-06-12T09:04:42.345Z,2.30
2018-06-12T09:07:09.418Z,2.02
2018-06-12T09:09:36.470Z,2.15
2018-06-12T09:12:04.090Z,3.12
2018-06-12T09:14:31.787Z,1.92
2018-06-12T09:16:59.099Z,2.27
2018-06-12T09:19:30.063Z,2.75
2018-06-12T09:21:57.181Z,2.95
2018-06-12T09:24:24.250Z,1.92
2018-06-12T09:26:51.305Z,2.60
2018-06-12T09:29:18.348Z,2.17
2018-06-12T09:31:45.479Z,2.12
2018-06-12T09:34:12.508Z,2.80
2018-06-12T09:36:39.546Z,2.40
2018-06-12T09:39:07.341Z,1.77
2018-06-12T09:41:34.565Z,2.25
2018-06-12T09:44:02.644Z,3.65
2018-06-12T09:46:29.692Z,2.12
2018-06-12T09:48:56.741Z,2.95
2018-06-12T09:51:23.805Z,1.92
2018-06-12T09:53:50.856Z,2.85
2018-06-12T09:56:17.885Z,2.50
2018-06-12T09:58:44.925Z,2.00
2018-06-12T10:01:17.505Z,3.02
2018-06-12T10:03:44.548Z,2.90
2018-06-12T10:06:11.578Z,2.75
2018-06-12T10:08:38.723Z,2.65
2018-06-12T10:11:05.793Z,2.75
2018-06-12T10:13:32.860Z,2.77
2018-06-12T10:15:59.918Z,3.30
2018-06-12T10:18:27.578Z,5.22
2018-06-12T10:20:54.680Z,6.40
2018-06-12T10:23:21.864Z,6.95
2018-06-12T10:25:48.913Z,6.62
2018-06-12T10:28:15.972Z,7.92
2018-06-12T10:30:43.049Z,7.70
2018-06-12T10:33:10.141Z,9.20
2018-06-12T10:35:37.198Z,8.30
2018-06-12T10:38:04.256Z,7.95
2018-06-12T10:40:31.308Z,9.00
2018-06-12T10:42:58.416Z,9.48
2018-06-12T10:45:25.478Z,8.53
2018-06-12T10:47:52.539Z,9.23
2018-06-12T10:50:19.587Z,9.33
2018-06-12T10:52:46.714Z,9.30
2018-06-12T10:55:13.764Z,9.70
2018-06-12T10:57:40.817Z,8.75
2018-06-12T11:00:07.877Z,7.78
2018-06-12T11:02:35.003Z,7.08
2018-06-12T11:05:02.082Z,6.25
2018-06-12T11:07:29.159Z,6.58
2018-06-12T11:09:56.222Z,5.55
2018-06-12T11:12:23.398Z,4.67
2018-06-12T11:14:50.448Z,4.25
2018-06-12T11:17:17.991Z,5.17
2018-06-12T11:19:45.847Z,4.87
2018-06-12T11:22:13.000Z,4.47
2018-06-12T11:24:40.049Z,3.90
2018-06-12T11:27:07.916Z,3.92
2018-06-12T11:29:34.988Z,4.05
2018-06-12T11:32:02.176Z,4.00
2018-06-12T11:34:29.237Z,3.37
2018-06-12T11:36:56.298Z,3.98
2018-06-12T11:39:23.392Z,3.87
2018-06-12T11:41:50.481Z,3.25
2018-06-12T11:44:17.535Z,3.27
2018-06-12T11:46:44.585Z,3.12
2018-06-12T11:49:11.630Z,2.40
2018-06-12T11:51:38.783Z,2.60
2018-06-12T11:54:05.831Z,2.87
2018-06-12T11:56:32.860Z,3.30
2018-06-12T11:58:59.907Z,2.62
2018-06-12T12:01:26.975Z,2.42
2018-06-12T12:03:54.039Z,2.92
2018-06-12T12:06:21.074Z,3.00
2018-06-12T12:08:48.181Z,3.27
2018-06-12T12:11:15.363Z,2.47
2018-06-12T12:13:42.529Z,2.50
2018-06-12T12:16:09.586Z,2.40
2018-06-12T12:18:36.693Z,2.25
2018-06-12T12:21:03.878Z,2.87
2018-06-12T12:23:30.959Z,3.33
2018-06-12T12:25:58.103Z,2.00
2018-06-12T12:28:25.142Z,3.12
2018-06-12T12:30:52.188Z,3.02
2018-06-12T12:33:19.237Z,3.62
2018-06-12T12:35:46.310Z,1.80
2018-06-12T12:38:13.396Z,3.20
2018-06-12T12:40:40.474Z,2.75
2018-06-12T12:43:07.576Z,2.65
2018-06-12T12:45:34.637Z,2.65
2018-06-12T12:48:01.687Z,2.37
2018-06-12T12:50:28.751Z,2.33
2018-06-12T12:52:55.854Z,2.17
2018-06-12T12:55:22.909Z,2.70
2018-06-12T12:57:50.048Z,2.42
2018-06-12T13:00:17.117Z,1.90
2018-06-12T13:02:44.256Z,1.92
2018-06-12T13:05:11.311Z,2.37
2018-06-12T13:07:38.463Z,2.98
2018-06-12T13:10:05.525Z,1.80
2018-06-12T13:12:32.642Z,2.25
2018-06-12T13:14:59.739Z,2.70
2018-06-12T13:17:26.782Z,2.27
2018-06-12T13:19:53.832Z,2.20
2018-06-12T13:22:20.951Z,1.80
2018-06-12T13:24:47.988Z,2.37
2018-06-12T13:27:15.045Z,1.87
2018-06-12T13:29:42.125Z,1.82
2018-06-12T13:32:09.270Z,1.92
2018-06-12T13:34:36.425Z,2.72
2018-06-12T13:37:03.504Z,2.42
2018-06-12T13:39:30.603Z,1.37
2018-06-12T13:41:57.881Z,3.15
2018-06-12T13:44:25.076Z,1.95
2018-06-12T13:46:52.132Z,2.33
2018-06-12T13:49:19.251Z,1.90
2018-06-12T13:51:46.376Z,2.25
2018-06-12T13:54:13.427Z,2.35
2018-06-12T13:56:41.533Z,2.85
2018-06-12T13:59:08.589Z,1.62
2018-06-12T14:01:35.745Z,1.95
2018-06-12T14:04:02.945Z,1.90
2018-06-12T14:06:30.252Z,1.85
2018-06-12T14:08:57.297Z,2.50
2018-06-12T14:11:24.455Z,1.80
2018-06-12T14:13:51.762Z,1.52
2018-06-12T14:16:18.825Z,2.55
2018-06-12T14:18:45.876Z,2.00
2018-06-12T14:21:13.018Z,2.20
2018-06-12T14:23:40.066Z,1.72
2018-06-12T14:26:07.161Z,1.50
2018-06-12T14:28:34.212Z,2.05
2018-06-12T14:31:01.325Z,1.22
2018-06-12T14:33:29.143Z,2.20
2018-06-12T14:35:56.219Z,2.37
2018-06-12T14:38:23.289Z,1.50
2018-06-12T14:40:50.703Z,2.22
2018-06-12T14:43:17.853Z,2.30
2018-06-12T14:45:44.925Z,2.05
2018-06-12T14:48:12.066Z,1.30
2018-06-12T14:50:39.150Z,0.95
2018-06-12T14:53:06.253Z,1.50
2018-06-12T14:55:33.389Z,1.62
2018-06-12T14:58:00.436Z,1.40
2018-06-12T15:00:27.494Z,1.82
2018-06-12T15:02:55.450Z,1.52
2018-06-12T15:05:22.497Z,2.02
2018-06-12T15:07:49.567Z,2.22
2018-06-12T15:10:17.377Z,2.22
2018-06-12T15:12:44.509Z,1.85
2018-06-12T15:15:11.543Z,1.57
2018-06-12T15:17:38.886Z,1.15
2018-06-12T15:20:05.961Z,2.37
2018-06-12T15:22:33.182Z,1.90
2018-06-12T15:25:00.336Z,1.57
2018-06-12T15:27:28.318Z,1.42
2018-06-12T15:29:56.091Z,1.10
2018-06-12T15:32:27.363Z,1.57
2018-06-12T15:34:55.375Z,1.15
2018-06-12T15:37:24.276Z,1.92
2018-06-12T15:39:52.873Z,1.70
2018-06-12T15:42:21.561Z,1.75
2018-06-12T15:44:49.317Z,1.87
2018-06-12T15:47:16.490Z,1.17
2018-06-12T15:49:43.587Z,1.47
2018-06-12T15:52:11.506Z,2.05
2018-06-12T15:54:38.766Z,1.50
2018-06-12T15:57:06.387Z,1.37
2018-06-12T15:59:33.599Z,1.85
2018-06-12T16:02:01.084Z,1.45
2018-06-12T16:04:29.172Z,1.70
2018-06-12T16:06:56.323Z,2.45
2018-06-12T16:09:23.380Z,1.60
2018-06-12T16:11:50.449Z,1.70
2018-06-12T16:14:17.825Z,1.75
2018-06-12T16:16:46.351Z,1.90
2018-06-12T16:19:13.400Z,1.52
2018-06-12T16:21:40.860Z,1.27
2018-06-12T16:24:07.964Z,1.50
2018-06-12T16:26:35.075Z,1.90
2018-06-12T16:29:02.187Z,1.80
2018-06-12T16:31:29.261Z,1.35
2018-06-12T16:33:56.316Z,1.42
2018-06-12T16:36:23.373Z,1.20
2018-06-12T16:38:50.421Z,1.50
2018-06-12T16:41:17.610Z,1.80
2018-06-12T16:43:44.621Z,1.75
2018-06-12T16:46:11.669Z,1.30
2018-06-12T16:48:39.210Z,2.10
2018-06-12T16:51:06.379Z,1.90
2018-06-12T16:53:33.482Z,2.12
2018-06-12T16:56:00.694Z,1.80
2018-06-12T16:58:27.880Z,2.35
2018-06-12T17:00:56.059Z,1.70
2018-06-12T17:03:23.266Z,2.58
2018-06-12T17:05:50.304Z,1.70
2018-06-12T17:08:17.451Z,2.58
2018-06-12T17:10:44.507Z,1.57
2018-06-12T17:13:11.648Z,1.30
2018-06-12T17:15:38.711Z,1.55
2018-06-12T17:18:05.883Z,1.65
2018-06-12T17:20:32.967Z,1.50
2018-06-12T17:23:00.229Z,2.08
2018-06-12T17:25:27.344Z,1.30
2018-06-12T17:27:54.559Z,1.40
2018-06-12T17:30:21.807Z,2.05
2018-06-12T17:32:48.938Z,1.85
2018-06-12T17:35:16.040Z,2.17
2018-06-12T17:37:43.252Z,2.20
2018-06-12T17:40:10.408Z,1.42
2018-06-12T17:42:37.493Z,1.00
2018-06-12T17:45:04.669Z,2.02
2018-06-12T17:47:31.746Z,1.98
2018-06-12T17:49:58.859Z,1.42
2018-06-12T17:52:25.983Z,2.08
2018-06-12T17:54:53.077Z,1.67
2018-06-12T17:57:20.148Z,1.80
2018-06-12T17:59:47.664Z,1.22
2018-06-12T18:02:14.800Z,1.10
2018-06-12T18:04:41.836Z,2.02
2018-06-12T18:07:08.912Z,2.33
2018-06-12T18:09:35.994Z,1.20
2018-06-12T18:12:03.084Z,1.00
2018-06-12T18:14:30.176Z,1.65
2018-06-12T18:16:57.245Z,1.35
2018-06-12T18:19:24.293Z,1.82
2018-06-12T18:21:51.340Z,1.40
2018-06-12T18:24:18.456Z,1.30
2018-06-12T18:26:45.548Z,1.02
2018-06-12T18:29:12.612Z,1.45
2018-06-12T18:31:39.773Z,1.62
2018-06-12T18:34:06.835Z,1.40
2018-06-12T18:36:33.941Z,1.30
2018-06-12T18:39:01.022Z,1.50
2018-06-12T18:41:28.208Z,1.60
2018-06-12T18:43:55.321Z,1.70
2018-06-12T18:46:22.536Z,1.22
2018-06-12T18:48:49.727Z,1.60
2018-06-12T18:51:17.713Z,1.90
2018-06-12T18:53:44.824Z,1.00
2018-06-12T18:56:11.904Z,0.88
2018-06-12T18:58:39.007Z,0.98
2018-06-12T19:01:07.481Z,1.42
2018-06-12T19:03:34.527Z,1.50
2018-06-12T19:06:02.667Z,1.20
2018-06-12T19:08:29.719Z,1.40
2018-06-12T19:10:56.771Z,1.60
2018-06-12T19:13:23.861Z,1.92
2018-06-12T19:15:50.924Z,1.37
2018-06-12T19:18:18.025Z,1.62
2018-06-12T19:20:45.077Z,6.92
2018-06-12T19:23:12.218Z,1.00
2018-06-12T19:25:39.308Z,1.00
2018-06-12T19:28:06.399Z,1.25
2018-06-12T19:30:33.466Z,1.22
2018-06-12T19:33:00.623Z,1.20
2018-06-12T19:35:27.687Z,1.82
2018-06-12T19:37:54.804Z,1.15
2018-06-12T19:40:21.879Z,1.40
2018-06-12T19:42:49.106Z,1.15
2018-06-12T19:45:16.207Z,1.00
2018-06-12T19:47:43.326Z,0.90
2018-06-12T19:50:10.460Z,1.07
2018-06-12T19:54:06.967Z,1.72
2018-06-12T19:56:34.025Z,1.30
2018-06-12T19:59:01.108Z,1.20
2018-06-12T20:01:28.475Z,1.20
2018-06-12T20:03:55.884Z,1.27
2018-06-12T20:06:23.038Z,1.30
2018-06-12T20:08:50.101Z,1.42
2018-06-12T20:11:17.236Z,1.92
2018-06-12T20:13:44.265Z,1.57
2018-06-12T20:16:11.312Z,1.00
2018-06-12T20:18:38.367Z,1.45
2018-06-12T20:21:05.504Z,1.22
2018-06-12T20:23:32.591Z,1.25
2018-06-12T20:25:59.644Z,1.10
2018-06-12T20:28:26.728Z,1.05
2018-06-12T20:30:53.799Z,1.20
2018-06-12T20:33:20.979Z,1.50
2018-06-12T20:35:48.039Z,1.12
2018-06-12T20:38:15.099Z,1.00
2018-06-12T20:40:42.159Z,1.57
2018-06-12T20:43:09.341Z,1.67
2018-06-12T20:45:36.434Z,1.05
2018-06-12T20:48:03.527Z,1.20
2018-06-12T20:50:30.523Z,0.90
2018-06-12T20:52:57.617Z,0.93
2018-06-12T20:55:24.675Z,1.67
2018-06-12T20:57:51.725Z,1.00
2018-06-12T21:00:18.891Z,1.15
2018-06-12T21:02:46.950Z,1.30
2018-06-12T21:05:14.015Z,1.32
2018-06-12T21:07:41.131Z,1.42
2018-06-12T21:10:08.169Z,1.32
2018-06-12T21:12:35.255Z,1.10
2018-06-12T21:15:02.284Z,1.32
2018-06-12T21:17:29.338Z,1.70
2018-06-12T21:19:56.395Z,1.50
2018-06-12T21:22:23.512Z,1.12
2018-06-12T21:24:50.640Z,1.20
2018-06-12T21:27:17.695Z,1.45
2018-06-12T21:29:44.740Z,1.15
2018-06-12T21:32:11.796Z,1.60
2018-06-12T21:34:38.874Z,1.82
2018-06-12T21:37:05.908Z,1.32
2018-06-12T21:39:32.959Z,0.95
2018-06-12T21:42:00.091Z,1.27
2018-06-12T21:44:27.225Z,1.00
2018-06-12T21:46:54.261Z,1.12
2018-06-12T21:49:21.351Z,1.27
2018-06-12T21:51:48.466Z,1.05
2018-06-12T21:54:15.515Z,1.60
2018-06-12T21:56:42.583Z,1.02
2018-06-12T21:59:09.589Z,1.50
2018-06-12T22:01:36.649Z,1.10
2018-06-12T22:04:03.696Z,1.30
2018-06-12T22:06:30.736Z,1.00
2018-06-12T22:08:57.765Z,1.10
2018-06-12T22:11:24.836Z,1.02
2018-06-12T22:13:51.868Z,2.05
2018-06-12T22:16:20.723Z,1.50
2018-06-12T22:18:47.768Z,0.85
2018-06-12T22:21:14.858Z,1.20
2018-06-12T22:23:41.916Z,1.67
2018-06-12T22:26:08.947Z,1.55
2018-06-12T22:28:36.620Z,1.40
2018-06-12T22:31:03.676Z,1.98
2018-06-12T22:33:30.739Z,1.30
2018-06-12T22:36:04.541Z,1.35
2018-06-12T22:38:31.580Z,1.37
2018-06-12T22:40:58.632Z,1.07
2018-06-12T22:43:25.672Z,1.10
2018-06-12T22:45:52.744Z,1.12
2018-06-12T22:48:19.806Z,0.95
2018-06-12T22:50:46.884Z,1.40
2018-06-12T22:53:13.928Z,1.47
2018-06-12T22:55:40.982Z,1.30
2018-06-12T22:58:08.028Z,1.40
2018-06-12T23:00:35.095Z,1.05
2018-06-12T23:03:02.221Z,1.00
2018-06-12T23:05:29.268Z,1.20
2018-06-12T23:07:56.296Z,1.42
2018-06-12T23:10:23.361Z,0.90
2018-06-12T23:12:50.420Z,0.90
2018-06-12T23:15:17.451Z,0.90
2018-06-12T23:17:51.286Z,1.12
2018-06-12T23:20:23.940Z,1.02
2018-06-12T23:22:51.064Z,1.00
2018-06-12T23:25:18.092Z,1.00
2018-06-12T23:27:45.149Z,1.25
2018-06-12T23:30:12.182Z,1.55
2018-06-12T23:32:39.265Z,1.45
2018-06-12T23:35:06.308Z,1.30
2018-06-12T23:37:33.803Z,2.35
2018-06-12T23:40:00.856Z,1.12
2018-06-12T23:42:27.978Z,1.45
2018-06-12T23:44:55.025Z,1.00
2018-06-12T23:47:22.144Z,1.22
2018-06-12T23:49:49.196Z,1.27
2018-06-12T23:52:16.253Z,1.10
2018-06-12T23:54:43.314Z,1.27
2018-06-12T23:57:10.360Z,1.45
2018-06-12T23:59:37.396Z,1.35
